sensor_id;sensor_type;location;lat;lon;timestamp;P1;durP1;ratioP1;P2;durP2;ratioP2
11064;SDS011;5585;52.530;7.320;2023-12-14T00:00:51;18.10;;;16.30;;
11064;SDS011;5585;52.530;7.320;2023-12-14T00:03:18;17.33;;;15.63;;
11064;SDS011;5585;52.530;7.320;2023-12-14T00:05:47;17.17;;;15.40;;
11064;SDS011;5585;52.530;7.320;2023-12-14T00:08:14;16.17;;;14.47;;
11064;SDS011;5585;52.530;7.320;2023-12-14T00:10:40;16.50;;;14.07;;
11064;SDS011;5585;52.530;7.320;2023-12-14T00:13:06;17.77;;;15.90;;
11064;SDS011;5585;52.530;7.320;2023-12-14T00:15:33;15.50;;;14.00;;
11064;SDS011;5585;52.530;7.320;2023-12-14T00:17:59;16.60;;;14.90;;
11064;SDS011;5585;52.530;7.320;2023-12-14T00:20:27;16.57;;;14.87;;
11064;SDS011;5585;52.530;7.320;2023-12-14T00:22:53;15.67;;;14.03;;
11064;SDS011;5585;52.530;7.320;2023-12-14T00:25:20;14.27;;;12.87;;
11064;SDS011;5585;52.530;7.320;2023-12-14T00:27:46;16.03;;;14.43;;
11064;SDS011;5585;52.530;7.320;2023-12-14T00:30:13;15.13;;;13.73;;
11064;SDS011;5585;52.530;7.320;2023-12-14T00:32:39;15.53;;;14.03;;
11064;SDS011;5585;52.530;7.320;2023-12-14T00:35:06;15.30;;;13.80;;
11064;SDS011;5585;52.530;7.320;2023-12-14T00:37:34;15.53;;;13.60;;
11064;SDS011;5585;52.530;7.320;2023-12-14T00:40:00;15.30;;;13.73;;
11064;SDS011;5585;52.530;7.320;2023-12-14T00:42:28;15.17;;;13.67;;
11064;SDS011;5585;52.530;7.320;2023-12-14T00:44:55;15.00;;;13.40;;
11064;SDS011;5585;52.530;7.320;2023-12-14T00:47:21;14.03;;;12.63;;
11064;SDS011;5585;52.530;7.320;2023-12-14T00:49:47;14.07;;;12.57;;
11064;SDS011;5585;52.530;7.320;2023-12-14T00:52:14;13.60;;;12.30;;
11064;SDS011;5585;52.530;7.320;2023-12-14T00:54:42;14.40;;;12.90;;
11064;SDS011;5585;52.530;7.320;2023-12-14T00:57:08;12.50;;;11.27;;
11064;SDS011;5585;52.530;7.320;2023-12-14T00:59:34;13.13;;;11.83;;
11064;SDS011;5585;52.530;7.320;2023-12-14T01:02:01;12.70;;;11.40;;
11064;SDS011;5585;52.530;7.320;2023-12-14T01:04:27;12.70;;;11.50;;
11064;SDS011;5585;52.530;7.320;2023-12-14T01:06:54;13.57;;;12.27;;
11064;SDS011;5585;52.530;7.320;2023-12-14T01:09:20;12.50;;;11.30;;
11064;SDS011;5585;52.530;7.320;2023-12-14T01:11:48;12.73;;;11.43;;
11064;SDS011;5585;52.530;7.320;2023-12-14T01:14:14;11.80;;;10.70;;
11064;SDS011;5585;52.530;7.320;2023-12-14T01:16:41;12.07;;;10.87;;
11064;SDS011;5585;52.530;7.320;2023-12-14T01:19:07;11.97;;;10.80;;
11064;SDS011;5585;52.530;7.320;2023-12-14T01:21:34;11.30;;;10.30;;
11064;SDS011;5585;52.530;7.320;2023-12-14T01:24:00;11.13;;;10.00;;
11064;SDS011;5585;52.530;7.320;2023-12-14T01:26:26;10.87;;;9.87;;
11064;SDS011;5585;52.530;7.320;2023-12-14T01:28:54;11.47;;;10.37;;
11064;SDS011;5585;52.530;7.320;2023-12-14T01:31:21;10.53;;;9.53;;
11064;SDS011;5585;52.530;7.320;2023-12-14T01:33:48;10.00;;;9.00;;
11064;SDS011;5585;52.530;7.320;2023-12-14T01:36:19;11.13;;;10.13;;
11064;SDS011;5585;52.530;7.320;2023-12-14T01:38:46;10.60;;;9.60;;
11064;SDS011;5585;52.530;7.320;2023-12-14T01:41:12;10.90;;;9.90;;
11064;SDS011;5585;52.530;7.320;2023-12-14T01:43:38;10.43;;;9.43;;
11064;SDS011;5585;52.530;7.320;2023-12-14T01:46:06;10.30;;;9.30;;
11064;SDS011;5585;52.530;7.320;2023-12-14T01:48:33;10.53;;;9.57;;
11064;SDS011;5585;52.530;7.320;2023-12-14T01:50:59;11.10;;;10.00;;
11064;SDS011;5585;52.530;7.320;2023-12-14T01:53:25;10.83;;;9.73;;
11064;SDS011;5585;52.530;7.320;2023-12-14T01:55:52;11.00;;;10.00;;
11064;SDS011;5585;52.530;7.320;2023-12-14T01:58:18;11.10;;;10.10;;
11064;SDS011;5585;52.530;7.320;2023-12-14T02:00:45;10.90;;;9.80;;
11064;SDS011;5585;52.530;7.320;2023-12-14T02:03:15;10.23;;;9.30;;
11064;SDS011;5585;52.530;7.320;2023-12-14T02:05:42;10.67;;;9.67;;
11064;SDS011;5585;52.530;7.320;2023-12-14T02:08:09;9.37;;;8.47;;
11064;SDS011;5585;52.530;7.320;2023-12-14T02:10:35;10.17;;;9.17;;
11064;SDS011;5585;52.530;7.320;2023-12-14T02:13:02;8.97;;;8.07;;
11064;SDS011;5585;52.530;7.320;2023-12-14T02:15:28;8.77;;;7.97;;
11064;SDS011;5585;52.530;7.320;2023-12-14T02:17:54;9.43;;;8.53;;
11064;SDS011;5585;52.530;7.320;2023-12-14T02:20:22;9.20;;;8.40;;
11064;SDS011;5585;52.530;7.320;2023-12-14T02:22:50;8.43;;;7.73;;
11064;SDS011;5585;52.530;7.320;2023-12-14T02:25:17;8.53;;;7.73;;
11064;SDS011;5585;52.530;7.320;2023-12-14T02:27:43;9.23;;;8.33;;
11064;SDS011;5585;52.530;7.320;2023-12-14T02:30:10;9.83;;;8.87;;
11064;SDS011;5585;52.530;7.320;2023-12-14T02:32:36;9.20;;;8.40;;
11064;SDS011;5585;52.530;7.320;2023-12-14T02:35:03;8.87;;;8.07;;
11064;SDS011;5585;52.530;7.320;2023-12-14T02:37:30;9.10;;;8.23;;
11064;SDS011;5585;52.530;7.320;2023-12-14T02:39:58;9.30;;;8.40;;
11064;SDS011;5585;52.530;7.320;2023-12-14T02:42:25;9.13;;;8.23;;
11064;SDS011;5585;52.530;7.320;2023-12-14T02:44:52;8.97;;;8.10;;
11064;SDS011;5585;52.530;7.320;2023-12-14T02:47:19;8.67;;;7.87;;
11064;SDS011;5585;52.530;7.320;2023-12-14T02:49:45;9.57;;;8.63;;
11064;SDS011;5585;52.530;7.320;2023-12-14T02:52:12;8.87;;;8.07;;
11064;SDS011;5585;52.530;7.320;2023-12-14T02:54:38;8.77;;;7.97;;
11064;SDS011;5585;52.530;7.320;2023-12-14T02:57:06;8.70;;;7.90;;
11064;SDS011;5585;52.530;7.320;2023-12-14T02:59:33;8.07;;;7.13;;
11064;SDS011;5585;52.530;7.320;2023-12-14T03:01:59;8.67;;;7.80;;
11064;SDS011;5585;52.530;7.320;2023-12-14T03:04:26;8.80;;;8.00;;
11064;SDS011;5585;52.530;7.320;2023-12-14T03:06:52;8.27;;;7.50;;
11064;SDS011;5585;52.530;7.320;2023-12-14T03:09:19;8.33;;;7.53;;
11064;SDS011;5585;52.530;7.320;2023-12-14T03:11:45;9.10;;;8.30;;
11064;SDS011;5585;52.530;7.320;2023-12-14T03:14:13;9.53;;;8.73;;
11064;SDS011;5585;52.530;7.320;2023-12-14T03:16:39;8.93;;;8.10;;
11064;SDS011;5585;52.530;7.320;2023-12-14T03:19:06;9.40;;;8.50;;
11064;SDS011;5585;52.530;7.320;2023-12-14T03:21:32;9.13;;;8.27;;
11064;SDS011;5585;52.530;7.320;2023-12-14T03:23:59;8.80;;;7.90;;
11064;SDS011;5585;52.530;7.320;2023-12-14T03:26:25;9.03;;;8.13;;
11064;SDS011;5585;52.530;7.320;2023-12-14T03:28:51;9.40;;;8.50;;
11064;SDS011;5585;52.530;7.320;2023-12-14T03:31:19;9.23;;;8.33;;
11064;SDS011;5585;52.530;7.320;2023-12-14T03:33:46;9.50;;;8.60;;
11064;SDS011;5585;52.530;7.320;2023-12-14T03:36:12;9.97;;;8.97;;
11064;SDS011;5585;52.530;7.320;2023-12-14T03:38:39;10.20;;;9.00;;
11064;SDS011;5585;52.530;7.320;2023-12-14T03:41:05;9.83;;;8.83;;
11064;SDS011;5585;52.530;7.320;2023-12-14T03:43:32;9.97;;;8.83;;
11064;SDS011;5585;52.530;7.320;2023-12-14T03:45:58;10.20;;;9.07;;
11064;SDS011;5585;52.530;7.320;2023-12-14T03:48:26;9.80;;;8.20;;
11064;SDS011;5585;52.530;7.320;2023-12-14T03:50:52;9.70;;;8.70;;
11064;SDS011;5585;52.530;7.320;2023-12-14T03:53:19;9.97;;;8.97;;
11064;SDS011;5585;52.530;7.320;2023-12-14T03:55:45;9.87;;;8.97;;
11064;SDS011;5585;52.530;7.320;2023-12-14T03:58:12;9.30;;;8.37;;
11064;SDS011;5585;52.530;7.320;2023-12-14T04:00:38;9.47;;;8.40;;
11064;SDS011;5585;52.530;7.320;2023-12-14T04:03:05;9.60;;;8.60;;
11064;SDS011;5585;52.530;7.320;2023-12-14T04:05:32;9.60;;;8.50;;
11064;SDS011;5585;52.530;7.320;2023-12-14T04:07:59;10.23;;;8.47;;
11064;SDS011;5585;52.530;7.320;2023-12-14T04:10:25;9.70;;;8.70;;
11064;SDS011;5585;52.530;7.320;2023-12-14T04:12:52;8.90;;;8.00;;
11064;SDS011;5585;52.530;7.320;2023-12-14T04:15:18;9.67;;;8.67;;
11064;SDS011;5585;52.530;7.320;2023-12-14T04:17:45;9.50;;;8.43;;
11064;SDS011;5585;52.530;7.320;2023-12-14T04:20:12;10.23;;;8.67;;
11064;SDS011;5585;52.530;7.320;2023-12-14T04:22:42;8.23;;;7.43;;
11064;SDS011;5585;52.530;7.320;2023-12-14T04:25:09;8.60;;;7.80;;
11064;SDS011;5585;52.530;7.320;2023-12-14T04:27:35;8.73;;;7.80;;
11064;SDS011;5585;52.530;7.320;2023-12-14T04:30:02;8.90;;;8.00;;
11064;SDS011;5585;52.530;7.320;2023-12-14T04:32:29;9.00;;;8.10;;
11064;SDS011;5585;52.530;7.320;2023-12-14T04:34:56;8.93;;;8.03;;
11064;SDS011;5585;52.530;7.320;2023-12-14T04:37:22;9.47;;;8.47;;
11064;SDS011;5585;52.530;7.320;2023-12-14T04:39:50;10.03;;;9.13;;
11064;SDS011;5585;52.530;7.320;2023-12-14T04:42:16;10.37;;;9.30;;
11064;SDS011;5585;52.530;7.320;2023-12-14T04:44:43;9.70;;;8.70;;
11064;SDS011;5585;52.530;7.320;2023-12-14T04:47:09;10.80;;;9.80;;
11064;SDS011;5585;52.530;7.320;2023-12-14T04:49:36;9.90;;;9.00;;
11064;SDS011;5585;52.530;7.320;2023-12-14T04:52:02;9.33;;;8.33;;
11064;SDS011;5585;52.530;7.320;2023-12-14T04:54:29;10.60;;;9.50;;
11064;SDS011;5585;52.530;7.320;2023-12-14T04:56:56;10.20;;;9.20;;
11064;SDS011;5585;52.530;7.320;2023-12-14T04:59:23;10.63;;;9.63;;
11064;SDS011;5585;52.530;7.320;2023-12-14T05:01:49;10.70;;;9.70;;
11064;SDS011;5585;52.530;7.320;2023-12-14T05:04:16;10.87;;;9.80;;
11064;SDS011;5585;52.530;7.320;2023-12-14T05:06:42;10.57;;;9.57;;
11064;SDS011;5585;52.530;7.320;2023-12-14T05:09:09;10.00;;;9.10;;
11064;SDS011;5585;52.530;7.320;2023-12-14T05:11:36;10.07;;;9.17;;
11064;SDS011;5585;52.530;7.320;2023-12-14T05:14:04;9.90;;;9.00;;
11064;SDS011;5585;52.530;7.320;2023-12-14T05:16:31;9.97;;;9.07;;
11064;SDS011;5585;52.530;7.320;2023-12-14T05:18:57;10.20;;;9.30;;
11064;SDS011;5585;52.530;7.320;2023-12-14T05:21:24;9.53;;;8.63;;
11064;SDS011;5585;52.530;7.320;2023-12-14T05:23:50;10.00;;;9.10;;
11064;SDS011;5585;52.530;7.320;2023-12-14T05:26:17;10.37;;;9.37;;
11064;SDS011;5585;52.530;7.320;2023-12-14T05:28:43;9.63;;;8.73;;
11064;SDS011;5585;52.530;7.320;2023-12-14T05:31:11;10.40;;;9.23;;
11064;SDS011;5585;52.530;7.320;2023-12-14T05:33:38;10.03;;;9.03;;
11064;SDS011;5585;52.530;7.320;2023-12-14T05:36:04;10.00;;;9.00;;
11064;SDS011;5585;52.530;7.320;2023-12-14T05:38:34;9.23;;;8.43;;
11064;SDS011;5585;52.530;7.320;2023-12-14T05:41:00;9.07;;;8.27;;
11064;SDS011;5585;52.530;7.320;2023-12-14T05:43:26;8.63;;;7.93;;
11064;SDS011;5585;52.530;7.320;2023-12-14T05:45:53;8.30;;;7.60;;
11064;SDS011;5585;52.530;7.320;2023-12-14T05:48:21;9.63;;;8.83;;
11064;SDS011;5585;52.530;7.320;2023-12-14T05:50:47;10.20;;;9.40;;
11064;SDS011;5585;52.530;7.320;2023-12-14T05:53:14;10.17;;;9.17;;
11064;SDS011;5585;52.530;7.320;2023-12-14T05:55:41;10.07;;;9.17;;
11064;SDS011;5585;52.530;7.320;2023-12-14T05:58:08;10.20;;;9.30;;
11064;SDS011;5585;52.530;7.320;2023-12-14T06:00:34;10.90;;;9.90;;
11064;SDS011;5585;52.530;7.320;2023-12-14T06:03:01;12.10;;;11.00;;
11064;SDS011;5585;52.530;7.320;2023-12-14T06:05:29;11.47;;;10.47;;
11064;SDS011;5585;52.530;7.320;2023-12-14T06:07:55;12.13;;;10.93;;
11064;SDS011;5585;52.530;7.320;2023-12-14T06:10:22;11.30;;;10.20;;
11064;SDS011;5585;52.530;7.320;2023-12-14T06:12:48;10.57;;;9.67;;
11064;SDS011;5585;52.530;7.320;2023-12-14T06:15:15;9.77;;;8.97;;
11064;SDS011;5585;52.530;7.320;2023-12-14T06:17:41;9.90;;;9.10;;
11064;SDS011;5585;52.530;7.320;2023-12-14T06:20:08;9.97;;;9.17;;
11064;SDS011;5585;52.530;7.320;2023-12-14T06:22:37;11.13;;;10.13;;
11064;SDS011;5585;52.530;7.320;2023-12-14T06:25:03;10.40;;;9.50;;
11064;SDS011;5585;52.530;7.320;2023-12-14T06:27:30;9.70;;;8.90;;
11064;SDS011;5585;52.530;7.320;2023-12-14T06:29:56;10.03;;;9.13;;
11064;SDS011;5585;52.530;7.320;2023-12-14T06:32:23;9.60;;;8.80;;
11064;SDS011;5585;52.530;7.320;2023-12-14T06:34:49;9.70;;;8.90;;
11064;SDS011;5585;52.530;7.320;2023-12-14T06:37:16;8.83;;;8.13;;
11064;SDS011;5585;52.530;7.320;2023-12-14T06:39:43;8.93;;;8.13;;
11064;SDS011;5585;52.530;7.320;2023-12-14T06:42:11;9.37;;;8.57;;
11064;SDS011;5585;52.530;7.320;2023-12-14T06:44:39;9.53;;;8.73;;
11064;SDS011;5585;52.530;7.320;2023-12-14T06:47:06;9.70;;;8.87;;
11064;SDS011;5585;52.530;7.320;2023-12-14T06:49:32;8.83;;;8.13;;
11064;SDS011;5585;52.530;7.320;2023-12-14T06:51:59;8.90;;;8.17;;
11064;SDS011;5585;52.530;7.320;2023-12-14T06:54:25;10.27;;;9.27;;
11064;SDS011;5585;52.530;7.320;2023-12-14T06:56:53;9.00;;;8.30;;
11064;SDS011;5585;52.530;7.320;2023-12-14T06:59:22;8.77;;;8.07;;
11064;SDS011;5585;52.530;7.320;2023-12-14T07:01:49;8.53;;;7.83;;
11064;SDS011;5585;52.530;7.320;2023-12-14T07:04:15;7.97;;;7.33;;
11064;SDS011;5585;52.530;7.320;2023-12-14T07:06:49;7.87;;;7.23;;
11064;SDS011;5585;52.530;7.320;2023-12-14T07:09:15;7.73;;;7.03;;
11064;SDS011;5585;52.530;7.320;2023-12-14T07:11:42;7.40;;;6.80;;
11064;SDS011;5585;52.530;7.320;2023-12-14T07:14:10;7.33;;;6.73;;
11064;SDS011;5585;52.530;7.320;2023-12-14T07:16:36;8.00;;;7.30;;
11064;SDS011;5585;52.530;7.320;2023-12-14T07:19:03;7.90;;;7.20;;
11064;SDS011;5585;52.530;7.320;2023-12-14T07:21:29;7.93;;;7.27;;
11064;SDS011;5585;52.530;7.320;2023-12-14T07:23:56;7.80;;;7.03;;
11064;SDS011;5585;52.530;7.320;2023-12-14T07:26:22;8.83;;;8.03;;
11064;SDS011;5585;52.530;7.320;2023-12-14T07:28:48;7.57;;;6.97;;
11064;SDS011;5585;52.530;7.320;2023-12-14T07:31:16;7.73;;;7.13;;
11064;SDS011;5585;52.530;7.320;2023-12-14T07:33:43;8.37;;;7.67;;
11064;SDS011;5585;52.530;7.320;2023-12-14T07:36:09;8.17;;;7.47;;
11064;SDS011;5585;52.530;7.320;2023-12-14T07:38:36;8.27;;;7.67;;
11064;SDS011;5585;52.530;7.320;2023-12-14T07:41:02;8.20;;;7.50;;
11064;SDS011;5585;52.530;7.320;2023-12-14T07:43:29;8.03;;;7.37;;
11064;SDS011;5585;52.530;7.320;2023-12-14T07:45:55;8.03;;;7.43;;
11064;SDS011;5585;52.530;7.320;2023-12-14T07:48:26;7.60;;;7.00;;
11064;SDS011;5585;52.530;7.320;2023-12-14T07:50:53;7.90;;;7.20;;
11064;SDS011;5585;52.530;7.320;2023-12-14T07:53:20;8.20;;;7.57;;
11064;SDS011;5585;52.530;7.320;2023-12-14T07:55:46;8.40;;;7.60;;
11064;SDS011;5585;52.530;7.320;2023-12-14T07:58:13;7.80;;;7.10;;
11064;SDS011;5585;52.530;7.320;2023-12-14T08:00:39;8.07;;;7.37;;
11064;SDS011;5585;52.530;7.320;2023-12-14T08:03:05;8.60;;;7.90;;
11064;SDS011;5585;52.530;7.320;2023-12-14T08:05:33;8.50;;;7.80;;
11064;SDS011;5585;52.530;7.320;2023-12-14T08:08:00;7.57;;;6.87;;
11064;SDS011;5585;52.530;7.320;2023-12-14T08:10:26;7.87;;;7.20;;
11064;SDS011;5585;52.530;7.320;2023-12-14T08:12:52;7.07;;;6.47;;
11064;SDS011;5585;52.530;7.320;2023-12-14T08:15:22;7.70;;;7.00;;
11064;SDS011;5585;52.530;7.320;2023-12-14T08:17:48;7.73;;;7.03;;
11064;SDS011;5585;52.530;7.320;2023-12-14T08:20:15;7.13;;;6.43;;
11064;SDS011;5585;52.530;7.320;2023-12-14T08:22:43;6.97;;;6.37;;
11064;SDS011;5585;52.530;7.320;2023-12-14T08:25:11;6.53;;;6.00;;
11064;SDS011;5585;52.530;7.320;2023-12-14T08:27:38;6.77;;;6.23;;
11064;SDS011;5585;52.530;7.320;2023-12-14T08:30:05;5.93;;;5.43;;
11064;SDS011;5585;52.530;7.320;2023-12-14T08:32:32;6.00;;;5.50;;
11064;SDS011;5585;52.530;7.320;2023-12-14T08:34:58;6.37;;;5.77;;
11064;SDS011;5585;52.530;7.320;2023-12-14T08:37:27;5.90;;;5.40;;
11064;SDS011;5585;52.530;7.320;2023-12-14T08:39:55;6.40;;;5.80;;
11064;SDS011;5585;52.530;7.320;2023-12-14T08:42:21;6.90;;;6.23;;
11064;SDS011;5585;52.530;7.320;2023-12-14T08:44:48;7.57;;;6.00;;
11064;SDS011;5585;52.530;7.320;2023-12-14T08:47:14;5.60;;;5.10;;
11064;SDS011;5585;52.530;7.320;2023-12-14T08:49:41;5.27;;;4.77;;
11064;SDS011;5585;52.530;7.320;2023-12-14T08:52:07;5.53;;;4.97;;
11064;SDS011;5585;52.530;7.320;2023-12-14T08:54:35;4.87;;;4.47;;
11064;SDS011;5585;52.530;7.320;2023-12-14T08:57:06;5.20;;;4.57;;
11064;SDS011;5585;52.530;7.320;2023-12-14T08:59:32;7.17;;;4.70;;
11064;SDS011;5585;52.530;7.320;2023-12-14T09:01:58;4.67;;;4.27;;
11064;SDS011;5585;52.530;7.320;2023-12-14T09:04:25;5.17;;;4.33;;
11064;SDS011;5585;52.530;7.320;2023-12-14T09:06:52;5.00;;;4.50;;
11064;SDS011;5585;52.530;7.320;2023-12-14T09:09:18;5.23;;;4.13;;
11064;SDS011;5585;52.530;7.320;2023-12-14T09:11:44;5.23;;;4.73;;
11064;SDS011;5585;52.530;7.320;2023-12-14T09:14:12;4.70;;;4.23;;
11064;SDS011;5585;52.530;7.320;2023-12-14T09:16:39;6.57;;;4.73;;
11064;SDS011;5585;52.530;7.320;2023-12-14T09:19:05;5.43;;;4.93;;
11064;SDS011;5585;52.530;7.320;2023-12-14T09:21:32;5.23;;;3.93;;
11064;SDS011;5585;52.530;7.320;2023-12-14T09:23:58;5.10;;;4.43;;
11064;SDS011;5585;52.530;7.320;2023-12-14T09:26:24;5.97;;;5.23;;
11064;SDS011;5585;52.530;7.320;2023-12-14T09:28:51;5.30;;;4.80;;
11064;SDS011;5585;52.530;7.320;2023-12-14T09:31:19;6.30;;;5.10;;
11064;SDS011;5585;52.530;7.320;2023-12-14T09:33:45;5.13;;;4.63;;
11064;SDS011;5585;52.530;7.320;2023-12-14T09:36:12;5.30;;;4.80;;
11064;SDS011;5585;52.530;7.320;2023-12-14T09:38:38;4.97;;;4.57;;
11064;SDS011;5585;52.530;7.320;2023-12-14T09:41:05;6.00;;;5.03;;
11064;SDS011;5585;52.530;7.320;2023-12-14T09:43:32;6.37;;;4.70;;
11064;SDS011;5585;52.530;7.320;2023-12-14T09:45:59;5.80;;;5.20;;
11064;SDS011;5585;52.530;7.320;2023-12-14T09:48:27;5.63;;;4.90;;
11064;SDS011;5585;52.530;7.320;2023-12-14T09:50:54;5.77;;;5.03;;
11064;SDS011;5585;52.530;7.320;2023-12-14T09:53:21;5.90;;;5.30;;
11064;SDS011;5585;52.530;7.320;2023-12-14T09:55:47;7.43;;;6.10;;
11064;SDS011;5585;52.530;7.320;2023-12-14T09:58:14;5.70;;;5.10;;
11064;SDS011;5585;52.530;7.320;2023-12-14T10:00:43;6.13;;;5.53;;
11064;SDS011;5585;52.530;7.320;2023-12-14T10:03:23;6.57;;;5.90;;
11064;SDS011;5585;52.530;7.320;2023-12-14T10:05:52;5.50;;;4.93;;
11064;SDS011;5585;52.530;7.320;2023-12-14T10:08:19;6.60;;;6.00;;
11064;SDS011;5585;52.530;7.320;2023-12-14T10:10:46;5.60;;;5.03;;
11064;SDS011;5585;52.530;7.320;2023-12-14T10:13:14;6.33;;;5.73;;
11064;SDS011;5585;52.530;7.320;2023-12-14T10:15:40;7.03;;;5.87;;
11064;SDS011;5585;52.530;7.320;2023-12-14T10:18:07;6.27;;;5.17;;
11064;SDS011;5585;52.530;7.320;2023-12-14T10:20:33;7.77;;;6.97;;
11064;SDS011;5585;52.530;7.320;2023-12-14T10:23:03;7.23;;;6.53;;
11064;SDS011;5585;52.530;7.320;2023-12-14T10:25:29;8.33;;;5.77;;
11064;SDS011;5585;52.530;7.320;2023-12-14T10:27:56;7.60;;;6.80;;
11064;SDS011;5585;52.530;7.320;2023-12-14T10:30:25;7.60;;;5.93;;
11064;SDS011;5585;52.530;7.320;2023-12-14T10:32:52;9.13;;;5.87;;
11064;SDS011;5585;52.530;7.320;2023-12-14T10:35:19;7.50;;;6.20;;
11064;SDS011;5585;52.530;7.320;2023-12-14T10:37:48;6.53;;;5.87;;
11064;SDS011;5585;52.530;7.320;2023-12-14T10:40:19;6.73;;;6.00;;
11064;SDS011;5585;52.530;7.320;2023-12-14T10:42:46;7.50;;;6.07;;
11064;SDS011;5585;52.530;7.320;2023-12-14T10:45:14;7.90;;;6.40;;
11064;SDS011;5585;52.530;7.320;2023-12-14T10:47:42;6.97;;;6.27;;
11064;SDS011;5585;52.530;7.320;2023-12-14T10:50:13;8.33;;;6.83;;
11064;SDS011;5585;52.530;7.320;2023-12-14T10:52:40;7.43;;;5.93;;
11064;SDS011;5585;52.530;7.320;2023-12-14T10:55:07;8.13;;;6.93;;
11064;SDS011;5585;52.530;7.320;2023-12-14T10:57:37;7.73;;;6.70;;
11064;SDS011;5585;52.530;7.320;2023-12-14T11:00:04;7.90;;;6.90;;
11064;SDS011;5585;52.530;7.320;2023-12-14T11:02:37;7.60;;;6.90;;
11064;SDS011;5585;52.530;7.320;2023-12-14T11:05:03;7.93;;;6.50;;
11064;SDS011;5585;52.530;7.320;2023-12-14T11:07:46;7.70;;;6.90;;
11064;SDS011;5585;52.530;7.320;2023-12-14T11:10:13;7.57;;;6.70;;
11064;SDS011;5585;52.530;7.320;2023-12-14T11:12:57;7.87;;;7.07;;
11064;SDS011;5585;52.530;7.320;2023-12-14T11:15:26;8.37;;;7.17;;
11064;SDS011;5585;52.530;7.320;2023-12-14T11:20:47;9.13;;;7.80;;
11064;SDS011;5585;52.530;7.320;2023-12-14T11:23:13;9.57;;;7.40;;
11064;SDS011;5585;52.530;7.320;2023-12-14T11:25:43;8.83;;;7.50;;
11064;SDS011;5585;52.530;7.320;2023-12-14T11:28:11;9.13;;;7.50;;
11064;SDS011;5585;52.530;7.320;2023-12-14T11:30:38;11.13;;;7.90;;
11064;SDS011;5585;52.530;7.320;2023-12-14T11:33:04;8.57;;;7.27;;
11064;SDS011;5585;52.530;7.320;2023-12-14T11:35:31;8.97;;;7.57;;
11064;SDS011;5585;52.530;7.320;2023-12-14T11:38:01;9.30;;;7.73;;
11064;SDS011;5585;52.530;7.320;2023-12-14T11:40:35;9.73;;;7.67;;
11064;SDS011;5585;52.530;7.320;2023-12-14T11:43:02;9.87;;;7.93;;
11064;SDS011;5585;52.530;7.320;2023-12-14T11:45:33;8.70;;;7.07;;
11064;SDS011;5585;52.530;7.320;2023-12-14T11:48:03;9.43;;;7.63;;
11064;SDS011;5585;52.530;7.320;2023-12-14T11:50:33;9.53;;;8.17;;
11064;SDS011;5585;52.530;7.320;2023-12-14T11:53:00;9.00;;;8.10;;
11064;SDS011;5585;52.530;7.320;2023-12-14T11:55:28;8.60;;;7.47;;
11064;SDS011;5585;52.530;7.320;2023-12-14T11:57:55;9.90;;;7.63;;
11064;SDS011;5585;52.530;7.320;2023-12-14T12:00:25;7.93;;;7.13;;
11064;SDS011;5585;52.530;7.320;2023-12-14T12:03:07;8.77;;;7.47;;
11064;SDS011;5585;52.530;7.320;2023-12-14T12:05:37;8.23;;;7.30;;
11064;SDS011;5585;52.530;7.320;2023-12-14T12:08:04;8.40;;;7.40;;
11064;SDS011;5585;52.530;7.320;2023-12-14T12:10:32;8.90;;;7.97;;
11064;SDS011;5585;52.530;7.320;2023-12-14T12:13:00;10.90;;;8.70;;
11064;SDS011;5585;52.530;7.320;2023-12-14T12:15:27;10.43;;;8.47;;
11064;SDS011;5585;52.530;7.320;2023-12-14T12:17:53;14.20;;;9.17;;
11064;SDS011;5585;52.530;7.320;2023-12-14T12:20:21;12.77;;;8.40;;
11064;SDS011;5585;52.530;7.320;2023-12-14T12:22:47;9.93;;;7.83;;
11064;SDS011;5585;52.530;7.320;2023-12-14T12:25:14;8.77;;;7.73;;
11064;SDS011;5585;52.530;7.320;2023-12-14T12:27:40;8.13;;;7.00;;
11064;SDS011;5585;52.530;7.320;2023-12-14T12:30:07;8.70;;;7.80;;
11064;SDS011;5585;52.530;7.320;2023-12-14T12:32:34;9.40;;;8.20;;
11064;SDS011;5585;52.530;7.320;2023-12-14T12:35:00;9.70;;;7.70;;
11064;SDS011;5585;52.530;7.320;2023-12-14T12:37:28;8.77;;;7.87;;
11064;SDS011;5585;52.530;7.320;2023-12-14T12:39:54;8.63;;;7.77;;
11064;SDS011;5585;52.530;7.320;2023-12-14T12:42:21;7.70;;;6.50;;
11064;SDS011;5585;52.530;7.320;2023-12-14T12:44:47;8.17;;;7.30;;
11064;SDS011;5585;52.530;7.320;2023-12-14T12:47:14;9.27;;;7.53;;
11064;SDS011;5585;52.530;7.320;2023-12-14T12:49:40;16.70;;;8.53;;
11064;SDS011;5585;52.530;7.320;2023-12-14T12:52:07;9.17;;;7.20;;
11064;SDS011;5585;52.530;7.320;2023-12-14T12:54:35;9.77;;;7.83;;
11064;SDS011;5585;52.530;7.320;2023-12-14T12:57:01;7.90;;;7.20;;
11064;SDS011;5585;52.530;7.320;2023-12-14T12:59:28;8.13;;;7.33;;
11064;SDS011;5585;52.530;7.320;2023-12-14T13:01:54;7.83;;;7.13;;
11064;SDS011;5585;52.530;7.320;2023-12-14T13:04:21;7.53;;;6.70;;
11064;SDS011;5585;52.530;7.320;2023-12-14T13:06:47;8.17;;;7.37;;
11064;SDS011;5585;52.530;7.320;2023-12-14T13:09:14;14.00;;;8.43;;
11064;SDS011;5585;52.530;7.320;2023-12-14T13:11:42;8.17;;;7.33;;
11064;SDS011;5585;52.530;7.320;2023-12-14T13:14:09;7.30;;;6.60;;
11064;SDS011;5585;52.530;7.320;2023-12-14T13:16:36;7.73;;;6.50;;
11064;SDS011;5585;52.530;7.320;2023-12-14T13:19:02;7.53;;;6.50;;
11064;SDS011;5585;52.530;7.320;2023-12-14T13:21:29;8.53;;;6.70;;
11064;SDS011;5585;52.530;7.320;2023-12-14T13:23:55;17.13;;;8.63;;
11064;SDS011;5585;52.530;7.320;2023-12-14T13:26:23;9.93;;;7.40;;
11064;SDS011;5585;52.530;7.320;2023-12-14T13:28:51;7.33;;;6.57;;
11064;SDS011;5585;52.530;7.320;2023-12-14T13:31:20;8.70;;;7.77;;
11064;SDS011;5585;52.530;7.320;2023-12-14T13:33:47;9.03;;;6.90;;
11064;SDS011;5585;52.530;7.320;2023-12-14T13:36:14;8.77;;;7.70;;
11064;SDS011;5585;52.530;7.320;2023-12-14T13:38:40;14.37;;;8.70;;
11064;SDS011;5585;52.530;7.320;2023-12-14T13:41:07;11.37;;;8.50;;
11064;SDS011;5585;52.530;7.320;2023-12-14T13:43:33;13.43;;;8.27;;
11064;SDS011;5585;52.530;7.320;2023-12-14T13:46:02;10.37;;;8.10;;
11064;SDS011;5585;52.530;7.320;2023-12-14T13:48:29;8.63;;;7.63;;
11064;SDS011;5585;52.530;7.320;2023-12-14T13:50:55;11.67;;;8.30;;
11064;SDS011;5585;52.530;7.320;2023-12-14T13:53:22;8.47;;;7.67;;
11064;SDS011;5585;52.530;7.320;2023-12-14T13:55:50;9.30;;;8.07;;
11064;SDS011;5585;52.530;7.320;2023-12-14T13:58:16;14.83;;;9.10;;
11064;SDS011;5585;52.530;7.320;2023-12-14T14:00:43;10.83;;;8.37;;
11064;SDS011;5585;52.530;7.320;2023-12-14T14:03:11;9.23;;;7.80;;
11064;SDS011;5585;52.530;7.320;2023-12-14T14:05:38;10.27;;;8.07;;
11064;SDS011;5585;52.530;7.320;2023-12-14T14:08:05;9.17;;;8.13;;
11064;SDS011;5585;52.530;7.320;2023-12-14T14:10:31;10.50;;;8.63;;
11064;SDS011;5585;52.530;7.320;2023-12-14T14:12:57;9.63;;;8.50;;
11064;SDS011;5585;52.530;7.320;2023-12-14T14:15:24;12.10;;;8.43;;
11064;SDS011;5585;52.530;7.320;2023-12-14T14:17:51;15.73;;;8.77;;
11064;SDS011;5585;52.530;7.320;2023-12-14T14:20:20;11.20;;;8.93;;
11064;SDS011;5585;52.530;7.320;2023-12-14T14:22:48;10.97;;;8.67;;
11064;SDS011;5585;52.530;7.320;2023-12-14T14:25:15;9.30;;;8.40;;
11064;SDS011;5585;52.530;7.320;2023-12-14T14:27:41;10.23;;;8.20;;
11064;SDS011;5585;52.530;7.320;2023-12-14T14:30:09;9.33;;;8.33;;
11064;SDS011;5585;52.530;7.320;2023-12-14T14:32:36;16.33;;;9.20;;
11064;SDS011;5585;52.530;7.320;2023-12-14T14:35:03;11.27;;;9.10;;
11064;SDS011;5585;52.530;7.320;2023-12-14T14:37:31;11.13;;;8.63;;
11064;SDS011;5585;52.530;7.320;2023-12-14T14:39:57;10.00;;;9.00;;
11064;SDS011;5585;52.530;7.320;2023-12-14T14:42:24;9.50;;;8.50;;
11064;SDS011;5585;52.530;7.320;2023-12-14T14:44:50;9.37;;;8.37;;
11064;SDS011;5585;52.530;7.320;2023-12-14T14:47:16;9.20;;;8.30;;
11064;SDS011;5585;52.530;7.320;2023-12-14T14:49:43;9.53;;;8.57;;
11064;SDS011;5585;52.530;7.320;2023-12-14T14:52:10;10.27;;;9.13;;
11064;SDS011;5585;52.530;7.320;2023-12-14T14:54:37;11.47;;;9.57;;
11064;SDS011;5585;52.530;7.320;2023-12-14T14:57:05;11.13;;;9.60;;